Terminal Aerodrome Forecast
Issued by NWS

Home | Current Version | Previous Version | Text Only | Print | Product List | Glossary On
Versions: 1 2 3 4 5 6 7 8 9 10 11 12 13 14 15 16 17 18 19 20 21 22 23 24 25 26 27 28
000
FTUS41 KPBZ 080327 AAB
TAFFKL
TAF AMD
KFKL 080327Z 0803/0824 20005KT P6SM SCT006 OVC015
     FM080500 25006KT 3SM BR VCSH OVC015
     FM080700 29008KT 4SM BR OVC004
     FM081500 02004KT 6SM BR OVC015
     FM081800 35005KT P6SM BKN025
      AMD LTD TO CLD VIS AND WIND=

USA.gov is the U.S. government's official web portal to all federal, state and local government web resources and services.